Time;durP1;ratioP1;P1;durP2;ratioP2;P2;SDS_P1;SDS_P2;PMS_P1;PMS_P2;Temp;Humidity;BMP_temperature;BMP_pressure;BME280_temperature;BME280_humidity;BME280_pressure;Samples;Min_cycle;Max_cycle;Signal;HPM_P1;HPM_P2
2023/03/21 00:00:31;;;;;;;9.07;6.37;;;;;;;;;;5079278;28;20577;-63
2023/03/21 00:02:59;;;;;;;9.27;6.90;;;;;;;;;;5079430;28;20237;-63
2023/03/21 00:05:27;;;;;;;11.13;6.07;;;;;;;;;;5079012;28;20206;-63
2023/03/21 00:07:55;;;;;;;10.17;5.97;;;;;;;;;;5079497;28;20205;-64
2023/03/21 00:10:26;;;;;;;8.93;6.17;;;;;;;;;;5078982;28;20246;-63
2023/03/21 00:13:11;;;;;;;10.23;5.73;;;;;;;;;;5079151;28;20296;-63
2023/03/21 00:15:50;;;;;;;8.43;5.20;;;;;;;;;;5079128;28;20209;-64
2023/03/21 00:18:40;;;;;;;6.10;5.40;;;;;;;;;;5079061;28;20217;-63
2023/03/21 00:21:11;;;;;;;8.17;5.67;;;;;;;;;;5078915;28;20241;-63
2023/03/21 00:24:00;;;;;;;7.10;5.20;;;;;;;;;;5078964;28;20209;-64
2023/03/21 00:26:27;;;;;;;7.70;5.70;;;;;;;;;;5079090;28;20202;-63
2023/03/21 00:28:55;;;;;;;11.17;5.90;;;;;;;;;;5078556;28;20210;-63
2023/03/21 00:31:25;;;;;;;5.70;4.87;;;;;;;;;;5078553;28;20254;-63
2023/03/21 00:33:53;;;;;;;9.10;5.77;;;;;;;;;;5078757;28;20202;-64
2023/03/21 00:36:24;;;;;;;9.60;5.77;;;;;;;;;;5078871;28;20206;-63
2023/03/21 00:38:53;;;;;;;5.90;5.23;;;;;;;;;;5078862;28;20259;-63
2023/03/21 00:41:21;;;;;;;6.10;5.40;;;;;;;;;;5075482;28;20210;-64
2023/03/21 00:44:08;;;;;;;18.90;11.33;;;;;;;;;;5078713;28;20206;-63
2023/03/21 00:46:37;;;;;;;24.03;15.33;;;;;;;;;;5078379;28;20209;-63
2023/03/21 00:49:26;;;;;;;22.13;14.50;;;;;;;;;;5078000;28;20250;-63
2023/03/21 00:51:54;;;;;;;15.53;13.73;;;;;;;;;;5078764;28;20257;-64
2023/03/21 00:54:32;;;;;;;20.73;13.50;;;;;;;;;;5078648;28;20205;-64
2023/03/21 00:57:01;;;;;;;14.57;11.57;;;;;;;;;;5078643;28;20212;-63
2023/03/21 00:59:30;;;;;;;17.07;10.80;;;;;;;;;;5078237;28;20296;-63
2023/03/21 01:02:00;;;;;;;16.67;10.03;;;;;;;;;;5078389;28;20696;-64
2023/03/21 01:04:28;;;;;;;9.73;7.40;;;;;;;;;;5078434;28;20700;-63
2023/03/21 01:06:56;;;;;;;7.93;6.73;;;;;;;;;;5078463;28;20210;-63
2023/03/21 01:09:24;;;;;;;12.30;7.73;;;;;;;;;;5077898;28;20664;-64
2023/03/21 01:11:52;;;;;;;7.83;6.50;;;;;;;;;;5077971;28;20708;-64
2023/03/21 01:14:21;;;;;;;9.13;6.93;;;;;;;;;;5078042;28;20577;-63
2023/03/21 01:16:51;;;;;;;9.40;6.30;;;;;;;;;;5077849;28;20730;-63
2023/03/21 01:19:21;;;;;;;6.17;5.40;;;;;;;;;;5077693;28;20656;-63
2023/03/21 01:21:59;;;;;;;8.87;5.37;;;;;;;;;;5077884;28;20568;-63
2023/03/21 01:24:27;;;;;;;6.50;4.77;;;;;;;;;;5077950;28;20205;-63
2023/03/21 01:26:55;;;;;;;7.90;5.70;;;;;;;;;;5078141;28;20661;-64
2023/03/21 01:29:24;;;;;;;6.80;5.47;;;;;;;;;;5078004;28;20293;-63
2023/03/21 01:31:51;;;;;;;8.97;5.60;;;;;;;;;;5077706;28;20312;-63
2023/03/21 01:34:21;;;;;;;6.57;4.83;;;;;;;;;;5077808;28;20658;-63
2023/03/21 01:36:49;;;;;;;8.20;5.43;;;;;;;;;;5077777;28;20267;-63
2023/03/21 01:39:17;;;;;;;6.30;5.03;;;;;;;;;;5076818;28;20263;-63
2023/03/21 01:41:45;;;;;;;6.07;4.77;;;;;;;;;;5078600;28;20214;-64
2023/03/21 01:44:14;;;;;;;6.37;4.60;;;;;;;;;;5078088;28;20205;-63
2023/03/21 01:46:45;;;;;;;5.13;4.23;;;;;;;;;;5077847;28;20206;-63
2023/03/21 01:49:33;;;;;;;5.27;4.33;;;;;;;;;;5077440;28;20309;-63
2023/03/21 01:52:02;;;;;;;4.97;4.50;;;;;;;;;;5077834;28;20237;-63
2023/03/21 01:54:43;;;;;;;5.03;4.53;;;;;;;;;;5077864;28;20210;-63
2023/03/21 01:57:13;;;;;;;6.20;4.43;;;;;;;;;;5077729;28;20212;-63
2023/03/21 01:59:43;;;;;;;7.10;4.63;;;;;;;;;;5077460;28;20265;-64
2023/03/21 02:02:12;;;;;;;7.43;4.47;;;;;;;;;;5073984;28;20198;-64
2023/03/21 02:04:49;;;;;;;5.23;4.67;;;;;;;;;;5076964;28;20206;-63
2023/03/21 02:07:22;;;;;;;7.83;4.87;;;;;;;;;;5077679;28;20210;-63
2023/03/21 02:09:51;;;;;;;7.97;4.50;;;;;;;;;;5077080;28;20241;-64
2023/03/21 02:12:19;;;;;;;5.03;4.53;;;;;;;;;;5076963;28;20226;-63
2023/03/21 02:14:48;;;;;;;6.37;4.87;;;;;;;;;;5077306;28;20233;-64
2023/03/21 02:17:19;;;;;;;6.00;4.53;;;;;;;;;;5077272;28;20234;-63
2023/03/21 02:20:15;;;;;;;6.33;4.77;;;;;;;;;;5077322;28;20275;-64
2023/03/21 02:22:46;;;;;;;7.17;4.70;;;;;;;;;;5077535;28;20237;-63
2023/03/21 02:25:33;;;;;;;5.80;5.27;;;;;;;;;;5077096;28;20297;-63
2023/03/21 02:28:03;;;;;;;7.20;4.83;;;;;;;;;;5077130;28;20288;-63
2023/03/21 02:30:37;;;;;;;7.20;4.90;;;;;;;;;;5077072;28;20667;-63
2023/03/21 02:33:32;;;;;;;5.43;4.83;;;;;;;;;;5077145;28;20229;-63
2023/03/21 02:36:13;;;;;;;8.77;5.13;;;;;;;;;;5075089;28;20202;-63
2023/03/21 02:38:46;;;;;;;7.93;5.03;;;;;;;;;;5077495;28;20216;-63
2023/03/21 02:41:16;;;;;;;9.17;5.37;;;;;;;;;;5077258;28;20233;-63
2023/03/21 02:43:48;;;;;;;6.63;4.70;;;;;;;;;;5077893;28;20209;-63
2023/03/21 02:46:19;;;;;;;6.50;5.07;;;;;;;;;;5077250;28;20213;-63
2023/03/21 02:48:52;;;;;;;5.93;4.77;;;;;;;;;;5077117;28;20206;-63
2023/03/21 02:51:21;;;;;;;7.83;5.40;;;;;;;;;;5078883;28;20226;-63
2023/03/21 02:53:56;;;;;;;8.13;5.37;;;;;;;;;;5080901;28;20258;-63
2023/03/21 02:56:44;;;;;;;5.83;4.70;;;;;;;;;;5075799;28;20213;-63
2023/03/21 02:59:12;;;;;;;6.93;4.80;;;;;;;;;;5080727;28;20206;-63
2023/03/21 03:01:40;;;;;;;5.80;4.57;;;;;;;;;;5081098;28;20237;-64
2023/03/21 03:04:17;;;;;;;7.87;4.70;;;;;;;;;;5081148;28;20206;-63
2023/03/21 03:06:49;;;;;;;10.30;5.50;;;;;;;;;;5075069;28;20243;-63
2023/03/21 03:09:26;;;;;;;8.50;5.10;;;;;;;;;;5071490;28;20237;-63
2023/03/21 03:11:58;;;;;;;5.27;4.53;;;;;;;;;;5080897;28;20565;-63
2023/03/21 03:14:39;;;;;;;6.93;4.70;;;;;;;;;;5073592;28;20244;-63
2023/03/21 03:17:32;;;;;;;6.60;4.73;;;;;;;;;;5079985;28;20206;-63
2023/03/21 03:20:09;;;;;;;7.00;4.60;;;;;;;;;;5075198;28;20280;-62
2023/03/21 03:22:48;;;;;;;4.80;4.40;;;;;;;;;;5061849;28;20199;-62
2023/03/21 03:25:21;;;;;;;8.37;4.40;;;;;;;;;;5074666;28;20205;-62
2023/03/21 03:28:03;;;;;;;5.30;4.60;;;;;;;;;;5088912;28;20298;-62
2023/03/21 03:30:32;;;;;;;5.90;4.33;;;;;;;;;;5079944;28;20222;-63
2023/03/21 03:33:15;;;;;;;5.93;5.10;;;;;;;;;;5079651;28;20287;-62
2023/03/21 03:35:44;;;;;;;6.60;4.80;;;;;;;;;;5079794;28;20210;-62
2023/03/21 03:38:21;;;;;;;6.13;4.30;;;;;;;;;;5079628;28;20271;-62
2023/03/21 03:40:53;;;;;;;6.87;4.83;;;;;;;;;;5077374;28;20290;-62
2023/03/21 03:43:23;;;;;;;6.03;4.60;;;;;;;;;;5070436;28;20568;-62
2023/03/21 03:45:53;;;;;;;7.97;4.67;;;;;;;;;;5079707;28;20213;-62
2023/03/21 03:48:25;;;;;;;7.27;5.07;;;;;;;;;;5079412;28;20210;-62
2023/03/21 03:50:54;;;;;;;5.90;4.33;;;;;;;;;;5079195;28;20600;-62
2023/03/21 03:53:24;;;;;;;7.00;4.27;;;;;;;;;;5079441;28;20230;-63
2023/03/21 03:55:55;;;;;;;7.27;4.57;;;;;;;;;;5079221;28;20213;-62
2023/03/21 03:58:23;;;;;;;7.03;4.70;;;;;;;;;;5072982;28;20229;-62
2023/03/21 04:01:07;;;;;;;4.33;3.93;;;;;;;;;;5075336;28;20255;-62
2023/03/21 04:03:36;;;;;;;5.43;4.20;;;;;;;;;;5074823;28;20573;-62
2023/03/21 04:06:17;;;;;;;7.77;4.03;;;;;;;;;;5079050;28;20213;-62
2023/03/21 04:08:45;;;;;;;5.07;3.30;;;;;;;;;;5077812;28;20205;-65
2023/03/21 04:11:15;;;;;;;4.60;4.13;;;;;;;;;;5079141;28;20236;-64
2023/03/21 04:13:43;;;;;;;5.07;4.40;;;;;;;;;;5079126;28;20727;-66
2023/03/21 04:16:11;;;;;;;5.33;3.80;;;;;;;;;;5078905;28;20587;-66
2023/03/21 04:18:39;;;;;;;4.23;3.83;;;;;;;;;;5079097;28;20255;-66
2023/03/21 04:21:08;;;;;;;4.57;4.10;;;;;;;;;;5079067;28;20230;-66
2023/03/21 04:23:37;;;;;;;7.60;4.17;;;;;;;;;;5079124;28;20737;-66
2023/03/21 04:26:05;;;;;;;6.33;4.03;;;;;;;;;;5080696;28;20224;-66
2023/03/21 04:28:35;;;;;;;4.60;3.67;;;;;;;;;;5099137;28;20205;-66
2023/03/21 04:31:05;;;;;;;5.30;3.90;;;;;;;;;;5098761;28;20243;-66
2023/03/21 04:33:49;;;;;;;6.80;4.20;;;;;;;;;;5098224;28;20260;-66
2023/03/21 04:36:26;;;;;;;8.40;4.60;;;;;;;;;;5098877;28;20664;-66
2023/03/21 04:38:55;;;;;;;7.57;4.10;;;;;;;;;;5098470;28;20237;-66
2023/03/21 04:41:24;;;;;;;6.57;4.33;;;;;;;;;;5078748;28;20288;-66
2023/03/21 04:43:53;;;;;;;6.40;4.33;;;;;;;;;;5072586;28;20329;-66
2023/03/21 04:46:21;;;;;;;6.17;3.97;;;;;;;;;;5074772;28;20206;-67
2023/03/21 04:48:49;;;;;;;7.70;4.40;;;;;;;;;;5078467;28;20221;-66
2023/03/21 04:51:17;;;;;;;5.07;4.60;;;;;;;;;;5078111;28;20226;-66
2023/03/21 04:53:48;;;;;;;5.97;4.30;;;;;;;;;;5078293;28;20700;-66
2023/03/21 04:56:16;;;;;;;9.33;4.73;;;;;;;;;;5078446;28;20255;-66
2023/03/21 04:58:44;;;;;;;5.63;4.70;;;;;;;;;;5078565;28;20289;-66
2023/03/21 05:01:13;;;;;;;7.87;4.97;;;;;;;;;;5077934;28;20235;-66
2023/03/21 05:03:41;;;;;;;8.67;5.13;;;;;;;;;;5078196;28;20224;-66
2023/03/21 05:06:09;;;;;;;7.27;5.50;;;;;;;;;;5078305;28;20213;-66
2023/03/21 05:08:38;;;;;;;6.57;5.10;;;;;;;;;;5078363;28;20202;-66
2023/03/21 05:11:06;;;;;;;5.77;4.93;;;;;;;;;;5077767;28;20244;-66
2023/03/21 05:13:34;;;;;;;5.67;4.60;;;;;;;;;;5078147;28;20234;-66
2023/03/21 05:16:02;;;;;;;9.53;5.37;;;;;;;;;;5077790;28;20269;-66
2023/03/21 05:18:37;;;;;;;6.97;5.17;;;;;;;;;;5077999;28;20212;-66
2023/03/21 05:21:06;;;;;;;8.40;5.63;;;;;;;;;;5078191;28;20229;-64
2023/03/21 05:23:37;;;;;;;8.03;5.37;;;;;;;;;;5078077;28;20248;-66
2023/03/21 05:26:06;;;;;;;8.77;5.40;;;;;;;;;;5078136;28;20274;-66
2023/03/21 05:28:35;;;;;;;4.60;4.20;;;;;;;;;;5077764;28;20243;-66
2023/03/21 05:31:03;;;;;;;7.33;5.10;;;;;;;;;;5077842;28;20279;-66
2023/03/21 05:33:33;;;;;;;5.73;4.67;;;;;;;;;;5077408;28;20707;-66
2023/03/21 05:36:01;;;;;;;6.43;4.93;;;;;;;;;;5077824;28;20244;-66
2023/03/21 05:38:29;;;;;;;14.83;4.43;;;;;;;;;;5070103;28;20206;-66
2023/03/21 05:40:57;;;;;;;6.20;4.83;;;;;;;;;;5074882;28;20261;-66
2023/03/21 05:43:25;;;;;;;5.90;4.40;;;;;;;;;;5077745;28;20649;-66
2023/03/21 05:45:53;;;;;;;7.73;5.10;;;;;;;;;;5077735;28;20208;-67
2023/03/21 05:48:21;;;;;;;7.10;4.20;;;;;;;;;;5077425;28;20619;-67
2023/03/21 05:50:51;;;;;;;8.10;4.97;;;;;;;;;;5077363;28;20233;-67
2023/03/21 05:53:19;;;;;;;5.53;4.83;;;;;;;;;;5077928;28;20216;-67
2023/03/21 05:55:49;;;;;;;5.00;4.27;;;;;;;;;;5077371;28;20226;-67
2023/03/21 05:58:17;;;;;;;7.77;4.07;;;;;;;;;;5077558;28;20293;-67
2023/03/21 06:00:46;;;;;;;5.97;4.03;;;;;;;;;;5077331;28;20244;-72
2023/03/21 06:03:14;;;;;;;6.17;4.17;;;;;;;;;;5077515;28;20637;-66
2023/03/21 06:05:42;;;;;;;5.37;4.33;;;;;;;;;;5077498;28;20210;-67
2023/03/21 06:08:11;;;;;;;4.93;4.10;;;;;;;;;;5077611;28;20289;-67
2023/03/21 06:10:39;;;;;;;8.27;4.90;;;;;;;;;;5077159;28;20274;-65
2023/03/21 06:13:07;;;;;;;6.33;4.90;;;;;;;;;;5077244;28;20665;-66
2023/03/21 06:15:35;;;;;;;6.97;5.07;;;;;;;;;;5077296;28;20596;-66
2023/03/21 06:18:04;;;;;;;5.57;4.80;;;;;;;;;;5076847;28;20293;-67
2023/03/21 06:20:33;;;;;;;6.53;4.47;;;;;;;;;;5077208;28;20316;-66
2023/03/21 06:23:01;;;;;;;7.73;4.50;;;;;;;;;;5077456;28;20242;-66
2023/03/21 06:25:30;;;;;;;5.90;4.70;;;;;;;;;;5077988;28;20202;-66
2023/03/21 06:27:58;;;;;;;7.63;5.03;;;;;;;;;;5081228;28;20210;-67
2023/03/21 06:30:26;;;;;;;6.40;4.93;;;;;;;;;;5081125;28;20230;-66
2023/03/21 06:32:55;;;;;;;5.93;5.33;;;;;;;;;;5080542;28;20215;-67
2023/03/21 06:35:22;;;;;;;9.80;5.07;;;;;;;;;;5081213;28;20313;-66
2023/03/21 06:37:51;;;;;;;7.00;4.67;;;;;;;;;;5080830;28;20238;-67
2023/03/21 06:40:19;;;;;;;7.03;5.00;;;;;;;;;;5080701;28;20267;-67
2023/03/21 06:42:48;;;;;;;5.27;4.77;;;;;;;;;;5080173;28;20216;-71
2023/03/21 06:45:16;;;;;;;5.37;4.77;;;;;;;;;;5083303;28;20190;-69
2023/03/21 06:47:44;;;;;;;5.63;4.33;;;;;;;;;;5096772;28;20240;-72
2023/03/21 06:50:13;;;;;;;11.07;4.93;;;;;;;;;;5088898;28;20311;-72
2023/03/21 06:52:41;;;;;;;8.10;4.87;;;;;;;;;;5080214;28;20206;-70
2023/03/21 06:55:09;;;;;;;6.23;4.57;;;;;;;;;;5080386;28;20222;-72
2023/03/21 06:57:37;;;;;;;9.60;4.60;;;;;;;;;;5084217;28;20205;-71
2023/03/21 07:00:08;;;;;;;8.90;4.97;;;;;;;;;;5080565;28;20228;-70
2023/03/21 07:02:37;;;;;;;5.50;5.00;;;;;;;;;;5090376;28;20228;-70
2023/03/21 07:05:05;;;;;;;5.53;4.47;;;;;;;;;;5087866;28;20202;-71
2023/03/21 07:07:33;;;;;;;5.57;4.90;;;;;;;;;;5075700;28;20617;-72
2023/03/21 07:10:01;;;;;;;5.30;3.93;;;;;;;;;;5072519;28;20238;-72
2023/03/21 07:12:32;;;;;;;6.03;4.50;;;;;;;;;;5080347;28;20234;-72
2023/03/21 07:15:00;;;;;;;6.73;4.97;;;;;;;;;;5080216;28;20218;-72
2023/03/21 07:17:30;;;;;;;5.97;4.80;;;;;;;;;;5080514;28;20210;-72
2023/03/21 07:19:58;;;;;;;8.03;4.73;;;;;;;;;;5079895;28;20591;-72
2023/03/21 07:22:26;;;;;;;5.43;4.60;;;;;;;;;;5089629;28;20251;-72
2023/03/21 07:24:54;;;;;;;5.40;4.50;;;;;;;;;;5086162;28;20260;-73
2023/03/21 07:27:31;;;;;;;5.57;4.87;;;;;;;;;;5079962;28;20226;-72
2023/03/21 07:29:59;;;;;;;7.50;5.30;;;;;;;;;;5080064;28;20229;-72
2023/03/21 07:32:28;;;;;;;7.43;5.40;;;;;;;;;;5079713;28;20728;-72
2023/03/21 07:34:58;;;;;;;9.30;5.20;;;;;;;;;;5079490;28;20234;-72
2023/03/21 07:37:28;;;;;;;6.60;4.73;;;;;;;;;;5078196;28;20684;-72
2023/03/21 07:39:56;;;;;;;6.70;5.10;;;;;;;;;;5073371;28;20222;-72
2023/03/21 07:42:24;;;;;;;5.83;4.73;;;;;;;;;;5074136;28;20704;-72
2023/03/21 07:44:53;;;;;;;8.37;4.93;;;;;;;;;;5079743;28;20206;-72
2023/03/21 07:47:21;;;;;;;8.53;5.57;;;;;;;;;;5066745;28;20283;-72
2023/03/21 07:49:50;;;;;;;7.27;5.87;;;;;;;;;;5079319;28;20256;-72
2023/03/21 07:52:19;;;;;;;6.57;5.70;;;;;;;;;;5079563;28;20225;-72
2023/03/21 07:54:47;;;;;;;9.37;5.67;;;;;;;;;;5079522;28;20244;-73
2023/03/21 07:57:15;;;;;;;6.47;5.83;;;;;;;;;;5079585;28;20211;-72
2023/03/21 07:59:43;;;;;;;7.13;5.07;;;;;;;;;;5067271;28;20238;-72
2023/03/21 08:02:13;;;;;;;7.83;5.30;;;;;;;;;;5079184;28;20206;-73
2023/03/21 08:04:41;;;;;;;7.77;5.73;;;;;;;;;;5078735;28;20237;-72
2023/03/21 08:07:09;;;;;;;8.87;6.17;;;;;;;;;;5079320;28;20209;-72
2023/03/21 08:09:39;;;;;;;6.43;5.50;;;;;;;;;;5079007;28;20241;-72
2023/03/21 08:12:08;;;;;;;11.87;5.77;;;;;;;;;;5078858;28;20206;-70
2023/03/21 08:14:36;;;;;;;7.27;5.83;;;;;;;;;;5078996;28;20228;-72
2023/03/21 08:17:04;;;;;;;11.40;5.63;;;;;;;;;;5073260;28;20276;-71
2023/03/21 08:19:32;;;;;;;6.67;5.07;;;;;;;;;;5078527;28;20641;-72
2023/03/21 08:22:01;;;;;;;10.27;5.37;;;;;;;;;;5079149;28;20267;-72
2023/03/21 08:24:29;;;;;;;10.43;5.37;;;;;;;;;;5079064;28;20210;-72
2023/03/21 08:26:58;;;;;;;8.83;5.80;;;;;;;;;;5078541;28;20202;-72
2023/03/21 08:29:26;;;;;;;6.77;5.20;;;;;;;;;;5078971;28;20222;-71
2023/03/21 08:31:55;;;;;;;9.47;5.67;;;;;;;;;;5078475;28;20211;-71
2023/03/21 08:34:23;;;;;;;6.90;5.17;;;;;;;;;;5071809;28;20227;-73
2023/03/21 08:36:51;;;;;;;6.90;5.47;;;;;;;;;;5078342;28;20666;-70
2023/03/21 08:39:20;;;;;;;7.23;5.37;;;;;;;;;;5076741;28;20222;-70
2023/03/21 08:41:48;;;;;;;6.27;5.40;;;;;;;;;;5078617;28;20241;-71
2023/03/21 08:44:19;;;;;;;7.53;5.63;;;;;;;;;;5078472;28;20233;-70
2023/03/21 08:46:47;;;;;;;10.20;6.17;;;;;;;;;;5078576;28;20198;-72
2023/03/21 08:49:15;;;;;;;7.97;5.80;;;;;;;;;;5077031;28;20252;-70
2023/03/21 08:51:44;;;;;;;7.87;6.67;;;;;;;;;;5078514;28;20236;-72
2023/03/21 08:54:18;;;;;;;6.47;5.77;;;;;;;;;;5078089;28;20252;-70
2023/03/21 08:56:46;;;;;;;9.20;6.23;;;;;;;;;;5077848;28;20230;-73
2023/03/21 08:59:14;;;;;;;8.23;5.80;;;;;;;;;;5078085;28;20206;-71
2023/03/21 09:01:43;;;;;;;7.67;6.83;;;;;;;;;;5078155;28;20207;-73
2023/03/21 09:04:11;;;;;;;6.93;6.20;;;;;;;;;;5077716;28;20206;-73
2023/03/21 09:06:46;;;;;;;6.57;5.00;;;;;;;;;;5072453;28;20290;-73
2023/03/21 09:09:15;;;;;;;9.03;4.93;;;;;;;;;;5076816;28;20229;-73
2023/03/21 09:11:43;;;;;;;6.43;4.60;;;;;;;;;;5077936;28;20577;-74
2023/03/21 09:14:11;;;;;;;9.77;5.10;;;;;;;;;;5078054;28;20209;-74
2023/03/21 09:16:40;;;;;;;6.50;4.67;;;;;;;;;;5077644;28;20226;-74
2023/03/21 09:19:09;;;;;;;8.90;5.03;;;;;;;;;;5077512;28;20218;-74
2023/03/21 09:21:38;;;;;;;6.30;4.80;;;;;;;;;;5078129;28;20260;-72
2023/03/21 09:24:06;;;;;;;9.80;4.90;;;;;;;;;;5076630;28;20210;-72
2023/03/21 09:26:34;;;;;;;7.10;4.70;;;;;;;;;;5077997;28;20204;-73
2023/03/21 09:29:03;;;;;;;7.57;4.67;;;;;;;;;;5077870;28;20209;-72
2023/03/21 09:31:31;;;;;;;6.93;4.83;;;;;;;;;;5077677;28;20273;-72
2023/03/21 09:33:59;;;;;;;5.57;4.90;;;;;;;;;;5077528;28;20275;-73
2023/03/21 09:36:31;;;;;;;6.23;5.23;;;;;;;;;;5077446;28;20230;-72
2023/03/21 09:38:59;;;;;;;5.03;4.53;;;;;;;;;;5076020;28;20212;-72
2023/03/21 09:41:36;;;;;;;6.57;5.10;;;;;;;;;;5065379;28;20198;-72
2023/03/21 09:44:17;;;;;;;6.67;5.90;;;;;;;;;;5077811;28;20202;-71
2023/03/21 09:46:47;;;;;;;6.70;5.67;;;;;;;;;;5077459;28;20209;-73
2023/03/21 09:49:19;;;;;;;5.60;4.23;;;;;;;;;;5077526;28;20297;-71
2023/03/21 09:51:51;;;;;;;5.43;4.47;;;;;;;;;;5077554;28;20284;-71
2023/03/21 09:54:22;;;;;;;6.33;4.87;;;;;;;;;;5077577;28;20259;-73
2023/03/21 09:56:51;;;;;;;5.47;4.87;;;;;;;;;;5077230;28;20269;-72
2023/03/21 09:59:21;;;;;;;6.83;5.20;;;;;;;;;;5073971;28;20222;-72
2023/03/21 10:01:49;;;;;;;6.40;4.73;;;;;;;;;;5080486;28;20206;-72
2023/03/21 10:04:19;;;;;;;5.87;4.97;;;;;;;;;;5081191;28;20210;-72
2023/03/21 10:06:53;;;;;;;5.40;4.90;;;;;;;;;;5081520;28;20668;-72
2023/03/21 10:09:23;;;;;;;6.17;4.73;;;;;;;;;;5081177;28;20323;-72
2023/03/21 10:11:53;;;;;;;7.13;4.80;;;;;;;;;;5081645;28;20257;-72
2023/03/21 10:14:24;;;;;;;7.83;4.93;;;;;;;;;;5078373;28;20280;-72
2023/03/21 10:16:56;;;;;;;6.70;4.80;;;;;;;;;;5074590;28;20226;-72
2023/03/21 10:19:26;;;;;;;10.30;5.17;;;;;;;;;;5080990;28;20305;-73
2023/03/21 10:21:55;;;;;;;6.53;4.50;;;;;;;;;;5082127;28;20212;-72
2023/03/21 10:24:29;;;;;;;5.00;4.50;;;;;;;;;;5092028;28;20220;-73
2023/03/21 10:26:57;;;;;;;5.33;4.77;;;;;;;;;;5081141;28;20240;-72
2023/03/21 10:29:28;;;;;;;4.77;4.27;;;;;;;;;;5081043;28;20226;-71
2023/03/21 10:31:56;;;;;;;7.10;5.33;;;;;;;;;;5079594;28;20216;-72
2023/03/21 10:34:28;;;;;;;8.03;4.97;;;;;;;;;;5080722;28;20233;-71
2023/03/21 10:36:58;;;;;;;4.90;4.33;;;;;;;;;;5080557;28;20676;-71
2023/03/21 10:39:27;;;;;;;6.00;4.77;;;;;;;;;;5078945;28;20221;-71
2023/03/21 10:41:55;;;;;;;22.97;8.30;;;;;;;;;;5080696;28;20666;-73
2023/03/21 10:44:28;;;;;;;8.53;6.27;;;;;;;;;;5080939;28;20206;-72
2023/03/21 10:46:57;;;;;;;5.43;4.77;;;;;;;;;;5080471;28;20568;-72
2023/03/21 10:49:26;;;;;;;9.10;4.80;;;;;;;;;;5071870;28;20226;-72
2023/03/21 10:51:56;;;;;;;8.23;4.50;;;;;;;;;;5080917;28;20214;-72
2023/03/21 10:54:28;;;;;;;7.30;4.83;;;;;;;;;;5074251;28;20225;-66
2023/03/21 10:56:57;;;;;;;4.93;4.43;;;;;;;;;;5080521;28;20261;-66
2023/03/21 10:59:27;;;;;;;9.47;4.90;;;;;;;;;;5080615;28;20218;-65
2023/03/21 11:01:55;;;;;;;7.13;4.30;;;;;;;;;;5080362;28;20669;-69
2023/03/21 11:04:25;;;;;;;6.90;4.53;;;;;;;;;;5079961;28;20206;-68
2023/03/21 11:06:55;;;;;;;7.20;5.03;;;;;;;;;;5080587;28;20204;-68
2023/03/21 11:09:24;;;;;;;8.37;4.07;;;;;;;;;;5080176;28;20289;-66
2023/03/21 11:12:01;;;;;;;7.50;4.97;;;;;;;;;;5080135;28;20213;-68
2023/03/21 11:14:33;;;;;;;5.60;4.83;;;;;;;;;;5080530;28;20216;-69
2023/03/21 11:17:01;;;;;;;8.07;5.57;;;;;;;;;;5080236;28;20233;-68
2023/03/21 11:19:31;;;;;;;8.27;5.07;;;;;;;;;;5077143;28;20226;-66
2023/03/21 11:22:04;;;;;;;10.87;5.03;;;;;;;;;;5078224;28;20237;-66
2023/03/21 11:24:33;;;;;;;9.07;4.93;;;;;;;;;;5072413;28;20727;-66
2023/03/21 11:27:05;;;;;;;4.63;4.20;;;;;;;;;;5079913;28;20225;-68
2023/03/21 11:29:34;;;;;;;5.00;3.90;;;;;;;;;;5079941;28;20222;-67
2023/03/21 11:32:09;;;;;;;4.53;4.10;;;;;;;;;;5079771;28;20248;-68
2023/03/21 11:34:40;;;;;;;6.17;4.20;;;;;;;;;;5079502;28;20228;-67
2023/03/21 11:37:17;;;;;;;4.63;3.67;;;;;;;;;;5079134;28;20254;-67
2023/03/21 11:39:45;;;;;;;5.70;3.97;;;;;;;;;;5079658;28;20222;-67
2023/03/21 11:42:27;;;;;;;4.50;4.10;;;;;;;;;;5073214;28;20203;-68
2023/03/21 11:45:00;;;;;;;4.87;3.70;;;;;;;;;;5077596;28;20745;-72
2023/03/21 11:47:28;;;;;;;5.30;3.77;;;;;;;;;;5079702;28;20260;-69
2023/03/21 11:49:56;;;;;;;7.57;3.83;;;;;;;;;;5079453;28;20222;-67
2023/03/21 11:52:35;;;;;;;4.30;3.43;;;;;;;;;;5079549;28;20213;-67
2023/03/21 11:55:11;;;;;;;3.93;3.13;;;;;;;;;;5077978;28;20653;-66
2023/03/21 11:57:43;;;;;;;4.17;3.77;;;;;;;;;;5082652;28;20254;-68
2023/03/21 12:00:16;;;;;;;5.23;3.00;;;;;;;;;;5099565;28;20579;-67
2023/03/21 12:02:54;;;;;;;9.67;3.40;;;;;;;;;;5097012;28;20202;-68
2023/03/21 12:05:26;;;;;;;4.10;3.00;;;;;;;;;;5078185;28;20202;-69
2023/03/21 12:07:58;;;;;;;5.07;2.87;;;;;;;;;;5077033;28;20206;-69
2023/03/21 12:10:30;;;;;;;3.53;3.10;;;;;;;;;;5077881;28;20692;-69
2023/03/21 12:13:04;;;;;;;4.20;2.93;;;;;;;;;;5075281;28;20238;-69
2023/03/21 12:15:36;;;;;;;4.67;3.13;;;;;;;;;;5079411;28;20210;-69
2023/03/21 12:18:10;;;;;;;3.80;3.47;;;;;;;;;;5078239;28;20222;-69
2023/03/21 12:20:45;;;;;;;3.80;3.07;;;;;;;;;;5078496;28;20581;-69
2023/03/21 12:23:23;;;;;;;2.77;2.57;;;;;;;;;;5077930;28;20213;-69
2023/03/21 12:25:55;;;;;;;6.30;4.60;;;;;;;;;;5079047;28;20209;-69
2023/03/21 12:28:28;;;;;;;5.27;3.20;;;;;;;;;;5078889;28;21034;-68
2023/03/21 12:31:03;;;;;;;6.00;3.27;;;;;;;;;;5078826;28;20225;-69
2023/03/21 12:33:36;;;;;;;4.63;2.63;;;;;;;;;;5078380;28;20213;-73
2023/03/21 12:36:09;;;;;;;4.43;2.40;;;;;;;;;;5070402;28;20226;-72
2023/03/21 12:38:40;;;;;;;7.10;3.00;;;;;;;;;;5078462;28;20274;-70
2023/03/21 12:41:16;;;;;;;6.27;2.57;;;;;;;;;;5079838;28;20692;-71
2023/03/21 12:43:49;;;;;;;4.47;3.00;;;;;;;;;;5098826;28;20684;-69
2023/03/21 12:46:21;;;;;;;4.37;2.63;;;;;;;;;;5098836;28;20287;-68
2023/03/21 12:48:51;;;;;;;6.57;2.67;;;;;;;;;;5098403;28;20236;-69
2023/03/21 12:51:20;;;;;;;3.97;2.80;;;;;;;;;;5080579;28;20228;-73
2023/03/21 12:53:51;;;;;;;3.03;2.53;;;;;;;;;;5078622;28;20217;-72
2023/03/21 12:56:22;;;;;;;4.73;2.57;;;;;;;;;;5078481;28;20213;-71
2023/03/21 12:58:54;;;;;;;3.97;2.40;;;;;;;;;;5078489;28;20268;-72
2023/03/21 13:01:23;;;;;;;3.93;2.37;;;;;;;;;;5073285;28;20673;-72
2023/03/21 13:03:52;;;;;;;4.00;2.13;;;;;;;;;;5068052;28;20207;-69
2023/03/21 13:06:22;;;;;;;6.40;2.40;;;;;;;;;;5073831;28;20206;-69
2023/03/21 13:08:52;;;;;;;6.07;2.60;;;;;;;;;;5077983;28;20233;-69
2023/03/21 13:11:22;;;;;;;2.87;2.13;;;;;;;;;;5078499;28;20233;-70
2023/03/21 13:13:55;;;;;;;3.70;2.70;;;;;;;;;;5077934;28;20210;-70
2023/03/21 13:16:26;;;;;;;2.90;2.27;;;;;;;;;;5078084;28;20202;-69
2023/03/21 13:18:57;;;;;;;2.70;2.30;;;;;;;;;;5077882;28;20226;-70
2023/03/21 13:21:31;;;;;;;3.87;2.47;;;;;;;;;;5078182;28;20206;-69
2023/03/21 13:24:01;;;;;;;4.43;2.50;;;;;;;;;;5074584;28;20262;-72
2023/03/21 13:26:38;;;;;;;5.67;3.00;;;;;;;;;;5075867;28;20289;-70
2023/03/21 13:29:22;;;;;;;4.83;2.30;;;;;;;;;;5077759;28;20220;-69
2023/03/21 13:31:50;;;;;;;4.20;2.30;;;;;;;;;;5074415;28;20202;-69
2023/03/21 13:34:22;;;;;;;4.90;2.67;;;;;;;;;;5077408;28;20210;-69
2023/03/21 13:36:50;;;;;;;4.20;2.13;;;;;;;;;;5077727;28;20206;-70
2023/03/21 13:39:20;;;;;;;5.33;2.03;;;;;;;;;;5077513;28;20706;-70
2023/03/21 13:41:48;;;;;;;2.40;1.93;;;;;;;;;;5077591;28;20680;-69
2023/03/21 13:44:24;;;;;;;3.20;2.10;;;;;;;;;;5073514;28;20284;-74
2023/03/21 13:46:55;;;;;;;4.47;2.67;;;;;;;;;;5068258;28;20205;-74
2023/03/21 13:49:27;;;;;;;4.90;2.50;;;;;;;;;;5081575;28;20217;-74
2023/03/21 13:51:57;;;;;;;4.53;2.13;;;;;;;;;;5066152;28;20218;-74
2023/03/21 13:54:30;;;;;;;4.23;2.13;;;;;;;;;;5082083;28;20256;-74
2023/03/21 13:56:58;;;;;;;2.77;1.97;;;;;;;;;;5071544;28;20249;-74
2023/03/21 13:59:40;;;;;;;6.27;2.30;;;;;;;;;;5077427;28;20473;-74
2023/03/21 14:02:21;;;;;;;3.87;2.70;;;;;;;;;;5072655;28;20227;-74
2023/03/21 14:04:54;;;;;;;3.57;2.13;;;;;;;;;;5082916;28;20204;-74
2023/03/21 14:07:33;;;;;;;4.90;2.30;;;;;;;;;;5079752;28;20641;-74
2023/03/21 14:10:02;;;;;;;3.17;2.20;;;;;;;;;;5077045;28;20233;-74
2023/03/21 14:12:36;;;;;;;4.43;2.40;;;;;;;;;;5077863;28;20714;-74
2023/03/21 14:15:07;;;;;;;3.27;2.40;;;;;;;;;;5066598;28;20209;-74
2023/03/21 14:17:49;;;;;;;3.83;2.80;;;;;;;;;;5076802;28;20244;-74
2023/03/21 14:20:19;;;;;;;3.23;2.47;;;;;;;;;;5077027;28;20230;-74
2023/03/21 14:22:48;;;;;;;2.40;2.10;;;;;;;;;;5073869;28;20209;-74
2023/03/21 14:25:17;;;;;;;2.50;2.30;;;;;;;;;;5076746;28;20234;-74
2023/03/21 14:27:47;;;;;;;3.57;2.50;;;;;;;;;;5076692;28;20257;-74
2023/03/21 14:30:23;;;;;;;3.20;1.90;;;;;;;;;;5073891;28;20206;-73
2023/03/21 14:32:51;;;;;;;3.47;2.53;;;;;;;;;;5076649;28;20632;-73
2023/03/21 14:35:21;;;;;;;3.60;2.73;;;;;;;;;;5077204;28;20277;-74
2023/03/21 14:37:49;;;;;;;5.63;2.57;;;;;;;;;;5076807;28;20761;-73
2023/03/21 14:40:21;;;;;;;3.17;2.13;;;;;;;;;;5068944;28;20309;-71
2023/03/21 14:42:50;;;;;;;3.50;2.10;;;;;;;;;;5074199;28;20603;-71
2023/03/21 14:45:21;;;;;;;2.47;2.27;;;;;;;;;;5074479;28;20212;-72
2023/03/21 14:47:59;;;;;;;5.83;2.53;;;;;;;;;;5071536;28;20542;-73
2023/03/21 14:50:34;;;;;;;3.77;2.23;;;;;;;;;;5077758;28;20237;-73
2023/03/21 14:53:02;;;;;;;5.80;2.40;;;;;;;;;;5080921;28;20271;-71
2023/03/21 14:55:30;;;;;;;4.37;2.27;;;;;;;;;;5080866;28;20210;-72
2023/03/21 14:57:58;;;;;;;3.07;1.80;;;;;;;;;;5080236;28;20615;-72
2023/03/21 15:00:29;;;;;;;2.77;2.07;;;;;;;;;;5079616;28;20254;-69
2023/03/21 15:02:58;;;;;;;2.43;2.23;;;;;;;;;;5079757;28;20661;-71